Terminal Aerodrome Forecast
Issued by NWS

Current Version | Previous Version | Graphics & Text | Print | Product List | Glossary On
Versions: 1 2 3 4 5 6 7 8 9 10 11 12 13 14 15 16 17 18 19 20 21 22 23 24
813
FTUS41 KILN 241741 AAA
TAFLUK
TAF AMD
KLUK 241741Z 2418/2518 21012G18KT P6SM SCT045
      TEMPO 2419/2422 BKN045
     FM242300 21008KT P6SM FEW050
     FM250300 16003KT P6SM SCT200
     FM251500 18008KT P6SM SCT045 BKN200=

USA.gov is the U.S. government's official web portal to all federal, state and local government web resources and services.